Tiempo atmosférico en la estación meteorológica de Barcelona, Barcelona (25 m.)



Fecha
DESCASC
Temp. máxima en grados centígrados (hora)
DESCASC
Temp. mínima en grados centígrados (hora)
DESCASC
Temp. media en grados centígrados
DESCASC
Racha de viento máxima en m/sg (hora)
DESCASC
Velocidad máxima media en intervalos de 10 minutos(hora)
DESCASC
Precipitaciones diarias en mm
DESCASC
Precipitaciones de 00:00 a 06:00 en mm
DESCASC
Precipitaciones de 06:00 a 12:00 en mm
DESCASC
Precipitaciones de 12:00 a 18:00 en mm
DESCASC
Precipitaciones de 18:00 a 24:00 en mm
DESCASC
24-01-2021 15.4 (16:20) 10.7 (01:30) 13 23.61 (05:30) 11.67 (08:00) 0 0 0 0 0
23-01-2021 15.1 (16:20) 9.5 (05:50) 12.3 14.44 (15:30) 7.5 (05:00) 0 0 0 0 0
22-01-2021 15.1 (05:30) 9 (09:50) 12.1 22.5 (09:40) 9.72 (09:40) 5 0 4.9 0.1 0
21-01-2021 16.4 (14:30) 9.1 (00:00) 12.8 11.11 (14:00) 6.94 (13:20) 0 0 0 0 0
20-01-2021 13.1 (13:40) 9.9 (00:00) 11.5 10 (14:40) 6.11 (14:50) 0 0 0 0 0
19-01-2021 15 (13:50) 6.2 (00:00) 10.6 10.28 (14:40) 7.22 (14:50) 0 0 0 0 0
18-01-2021 12.1 (14:20) 7.4 (00:00) 9.8 6.11 (14:50) 3.61 (15:40) 0 0 0 0 0
17-01-2021 15.9 (13:50) 6.8 (00:00) 11.3 6.39 (08:20) 4.17 (08:20) 0 0 0 0 0
16-01-2021 13.5 (15:30) 5 (00:00) 9.3 7.5 (22:00) 4.17 (13:30) 0 0 0 0 0
15-01-2021 12.3 (15:50) 4.8 (00:00) 8.6 6.67 (16:30) 5.83 (16:40) 0 0 0 0 0
14-01-2021 11.7 (14:30) 5.2 (08:40) 8.4 9.17 (08:30) 5.28 (09:50) 0 0 0 0 0
13-01-2021 13.7 (16:00) 4.4 (00:00) 9 9.44 (01:30) 5 (21:10) 0 0 0 0 0
12-01-2021 10.1 (13:30) 3.1 (00:00) 6.6 11.11 (19:20) 6.11 (20:20) 0 0 0 0 0
11-01-2021 9.1 (13:50) 3 (00:00) 6.1 7.78 (15:20) 4.72 (15:20) 0 0 0 0 0
10-01-2021 8.6 (16:30) 5.4 (22:50) 7 13.61 (01:50) 7.78 (01:50) 2 1 0 1 0
09-01-2021 7.9 (21:10) 3.8 (00:00) 5.9 21.39 (19:50) 12.5 (19:50) 10.8 2.1 5.7 3 0
08-01-2021 7.5 (14:50) 2.3 (00:00) 4.9 10.56 (20:50) 5 (22:20) 0 0 0 0 0
07-01-2021 7.4 (14:50) 4.1 (00:00) 5.8 7.5 (12:50) 5.56 (12:50) 1.7 1.7 0 0 0
06-01-2021 10.4 (14:10) 2 (00:00) 6.2 6.67 (08:10) 4.17 (08:10) 0 0 0 0 0
05-01-2021 10 (14:00) 2.8 (00:00) 6.4 7.78 (04:10) 4.17 (03:50) 0 0 0 0 0
04-01-2021 10.1 (15:40) 2.5 (00:00) 6.3 10 (14:50) 5.83 (13:10) 0 0 0 0 0
03-01-2021 9.7 (14:20) 4.2 (00:00) 6.9 11.67 (16:20) 5 (14:30) 0 0 0 0 0
02-01-2021 9.9 (14:20) 4 (00:00) 6.9 8.33 (23:00) 6.39 (23:00) 0 0 0 0 0
01-01-2021 10.6 (00:30) 6.6 (00:00) 8.6 11.11 (11:00) 7.5 (10:50) 0 0 0 0 0
31-12-2020 13.4 (14:50) 6.1 (00:00) 9.7 9.44 (08:00) 6.39 (07:40) 0 0 0 0 0
30-12-2020 12.4 (14:30) 5.5 (00:00) 8.9 14.17 (14:00) 6.67 (14:10) 0 0 0 0 0
29-12-2020 13.2 (14:00) 8 (00:00) 10.6 15.56 (12:50) 7.22 (12:50) 0 0 0 0 0
28-12-2020 12.5 (15:00) 8 (00:00) 10.3 23.61 (10:00) 11.39 (10:40) 0 0 0 0 0
27-12-2020 10.4 (14:30) 4.1 (00:00) 7.2 9.72 (11:20) 5.83 (22:50) 0 0 0 0 0
26-12-2020 13.7 (14:40) 5.1 (00:00) 9.4 13.89 (01:00) 8.33 (05:00) 0 0 0 0 0

Gráficas

Temp. máximas Temp. mínimas Temp. medias Precipitaciones Rachas de viento máximas Velocidades máximas media en intervalos de 10 minutos

Datos horarios

Fecha y hora oficial Temperatura (ºC) Velocidad del viento (km/h) Dirección del viento Racha (km/h) Dirección de racha Precipitación (mm) Presión (hPa) Tendencia (hPa) Humedad (%)
2021-01-24 23:00:00 12.9 14 Oeste 29 Oeste 0 -- -- 54
2021-01-24 22:00:00 12.9 17 Oeste 30 Oeste 0 -- -- 53
2021-01-24 21:00:00 13 17 Oeste 34 Oeste 0 -- -- 51
2021-01-24 20:00:00 13.3 12 Oeste 32 Oeste 0 -- -- 52
2021-01-24 19:00:00 13.6 16 Oeste 32 Noroeste 0 -- -- 52
2021-01-24 18:00:00 13.9 19 Oeste 37 Noroeste 0 -- -- 51
2021-01-24 17:00:00 14.3 21 Oeste 35 Oeste 0 -- -- 49
2021-01-24 16:00:00 14.9 9 Oeste 32 Oeste 0 -- -- 51
2021-01-24 15:00:00 14 21 Sudoeste 35 Sudoeste 0 -- -- 69
2021-01-24 14:00:00 12.3 30 Sudoeste 41 Sudoeste 0 -- -- 83
2021-01-24 13:00:00 12.7 18 Sur 28 Sur 0 -- -- 80
2021-01-24 12:00:00 12.6 12 Sur 21 Este 0 -- -- 78
2021-01-24 11:00:00 12.4 17 Sudeste 21 Este 0 -- -- 81
2021-01-24 10:00:00 11.7 21 Este 39 Nordeste 0 -- -- 85
2021-01-24 09:00:00 11.7 20 Norte 66 Noroeste 0 -- -- 71
2021-01-24 08:00:00 12.3 42 Noroeste 75 Noroeste 0 -- -- 67
2021-01-24 07:00:00 13 28 Noroeste 62 Noroeste 0 -- -- 64
2021-01-24 06:00:00 14.1 24 Noroeste 85 Noroeste 0 -- -- 58
2021-01-24 05:00:00 13.9 31 Oeste 62 Oeste 0 -- -- 62
2021-01-24 04:00:00 12.3 14 Oeste 28 Noroeste 0 -- -- 74
2021-01-24 03:00:00 11.7 10 Oeste 23 Oeste 0 -- -- 75
2021-01-24 02:00:00 11.2 6 Oeste 10 Oeste 0 -- -- 76
2021-01-24 01:00:00 11 0 Calma 5 Norte 0 -- -- 76
2021-01-24 00:00:00 10.8 0 Calma 11 Nordeste 0 -- -- 75
2021-01-23 23:00:00 11 6 Norte 10 Noroeste 0 -- -- 70
2021-01-23 22:00:00 11.6 3 Noroeste 21 Noroeste 0 -- -- 65
2021-01-23 21:00:00 12.1 9 Noroeste 23 Oeste 0 -- -- 62
2021-01-23 20:00:00 12.4 5 Oeste 22 Oeste 0 -- -- 59
2021-01-23 19:00:00 12.9 7 Oeste 41 Oeste 0 -- -- 56
2021-01-23 18:00:00 13.7 14 Oeste 36 Noroeste 0 -- -- 53
2021-01-23 17:00:00 14.7 8 Oeste 43 Oeste 0 -- -- 54
2021-01-23 16:00:00 14.6 25 Oeste 52 Noroeste 0 -- -- 48
2021-01-23 15:00:00 14.5 19 Oeste 47 Oeste 0 -- -- 48
2021-01-23 14:00:00 14.5 17 Oeste 46 Noroeste 0 -- -- 50
2021-01-23 13:00:00 13.6 25 Noroeste 45 Oeste 0 -- -- 49
2021-01-23 12:00:00 12.9 21 Oeste 45 Oeste 0 -- -- 53
2021-01-23 11:00:00 11.9 19 Oeste 43 Oeste 0 -- -- 56
2021-01-23 10:00:00 11 15 Oeste 38 Oeste 0 -- -- 59
2021-01-23 09:00:00 10.4 18 Oeste 35 Oeste 0 -- -- 60
2021-01-23 08:00:00 9.8 11 Oeste 35 Oeste 0 -- -- 61
2021-01-23 07:00:00 9.8 8 Oeste 35 Oeste 0 -- -- 60
2021-01-23 06:00:00 9.6 10 Noroeste 36 Noroeste 0 -- -- 59
2021-01-23 05:00:00 9.8 27 Noroeste 51 Noroeste 0 -- -- 56
2021-01-23 04:00:00 9.7 11 Oeste 41 Oeste 0 -- -- 57
2021-01-23 03:00:00 10 12 Noroeste 31 Noroeste 0 -- -- 54
2021-01-23 02:00:00 10.1 13 Noroeste 47 Noroeste 0 -- -- 54
2021-01-23 01:00:00 10.2 26 Noroeste 49 Noroeste 0 -- -- 54
2021-01-23 00:00:00 10.3 17 Noroeste 56 Oeste 0 -- -- 54
2021-01-22 23:00:00 10 30 Noroeste 60 Noroeste 0 -- -- 56
2021-01-22 22:00:00 10.4 22 Oeste 58 Oeste 0 -- -- 56
2021-01-22 21:00:00 11 18 Oeste 47 Noroeste 0 -- -- 56
2021-01-22 20:00:00 11.8 26 Oeste 51 Noroeste 0 -- -- 56
2021-01-22 19:00:00 12.4 26 Oeste 61 Noroeste 0 -- -- 57
2021-01-22 18:00:00 12.9 25 Oeste 53 Oeste 0 -- -- 57
2021-01-22 17:00:00 13.2 31 Noroeste 69 Oeste 0 -- -- 56
2021-01-22 16:00:00 12.9 27 Noroeste 62 Noroeste 0 -- -- 59
2021-01-22 15:00:00 13.4 28 Noroeste 64 Oeste 0 -- -- 57
2021-01-22 14:00:00 14.5 29 Oeste 63 Oeste 0 -- -- 51
2021-01-22 13:00:00 14.2 27 Oeste 56 Oeste 0.1 -- -- 54
2021-01-22 12:00:00 13.1 20 Oeste 40 Oeste 0 -- -- 67
2021-01-22 11:00:00 10.5 18 Oeste 56 Noroeste 0.9 -- -- 80
2021-01-22 10:00:00 9.6 33 Oeste 81 Noroeste 4 -- -- 89
2021-01-22 09:00:00 14 14 Oeste 38 Oeste 0 -- -- 85
2021-01-22 08:00:00 14.1 15 Oeste 41 Oeste 0 -- -- 83
2021-01-22 07:00:00 14.4 23 Oeste 53 Oeste 0 -- -- 81
2021-01-22 06:00:00 14.5 23 Oeste 53 Oeste 0 -- -- 78
2021-01-22 05:00:00 14.6 26 Oeste 50 Oeste 0 -- -- 73
2021-01-22 04:00:00 13.3 10 Oeste 23 Oeste 0 -- -- 73
2021-01-22 03:00:00 11.9 5 Oeste 18 Oeste 0 -- -- 78
2021-01-22 02:00:00 12.2 10 Sudoeste 14 Sudoeste 0 -- -- 80
2021-01-22 01:00:00 12.9 8 Sudoeste 15 Noroeste 0 -- -- 75
2021-01-22 00:00:00 12.5 9 Oeste 19 Oeste 0 -- -- 81
2021-01-21 23:00:00 12.4 10 Sudoeste 16 Sudoeste 0 -- -- 80
2021-01-21 22:00:00 12.3 9 Oeste 13 Oeste 0 -- -- 83
2021-01-21 21:00:00 12.3 6 Sudoeste 13 Sudoeste 0 -- -- 89
2021-01-21 20:00:00 12.9 4 Sudoeste 20 Sudoeste 0 -- -- 86
2021-01-21 19:00:00 13.8 6 Sudoeste 16 Sudoeste 0 -- -- 75
2021-01-21 18:00:00 14.4 9 Sudoeste 22 Oeste 0 -- -- 72
2021-01-21 17:00:00 15.1 8 Sudoeste 22 Oeste 0 -- -- 72
2021-01-21 16:00:00 14.9 15 Sudoeste 27 Sudoeste 0 -- -- 72
2021-01-21 15:00:00 15.8 16 Oeste 34 Oeste 0 -- -- 61
2021-01-21 14:00:00 16 22 Oeste 40 Oeste 0 -- -- 57
2021-01-21 13:00:00 14.2 18 Sudoeste 32 Oeste 0 -- -- 72
2021-01-21 12:00:00 15.4 9 Sudoeste 30 Oeste 0 -- -- 62
2021-01-21 11:00:00 13.9 17 Oeste 28 Oeste 0 -- -- 66
2021-01-21 10:00:00 12.4 5 Oeste 19 Oeste 0 -- -- 71
2021-01-21 09:00:00 11.9 13 Oeste 24 Oeste 0 -- -- 69
2021-01-21 08:00:00 11.6 11 Oeste 19 Oeste 0 -- -- 71
2021-01-21 07:00:00 10.3 6 Oeste 9 Oeste 0 -- -- 83
2021-01-21 06:00:00 9.3 0 Calma 6 Noroeste 0 -- -- 89
2021-01-21 05:00:00 9.3 4 Nordeste 11 Este 0 -- -- 89
2021-01-21 04:00:00 9.7 4 Noroeste 10 Oeste 0 -- -- 90
2021-01-21 03:00:00 9.4 0 Calma 9 Norte 0 -- -- 90
2021-01-21 02:00:00 10.2 2 Nordeste 18 Oeste 0 -- -- 90
2021-01-21 01:00:00 10.8 9 Oeste 21 Oeste 0 -- -- 89
2021-01-21 00:00:00 11 8 Oeste 20 Oeste 0 -- -- 89
2021-01-20 23:00:00 11.1 15 Oeste 36 Oeste 0 -- -- 89
2021-01-20 22:00:00 11 16 Oeste 30 Oeste 0 -- -- 90
2021-01-20 21:00:00 10.8 14 Oeste 24 Oeste 0 -- -- 91
2021-01-20 20:00:00 11.1 10 Sudoeste 26 Oeste 0 -- -- 86
2021-01-20 19:00:00 11.1 14 Oeste 28 Oeste 0 -- -- 89
2021-01-20 18:00:00 11.2 14 Sudoeste 31 Sudoeste 0 -- -- 90
2021-01-20 17:00:00 11.9 17 Sudoeste 27 Sudoeste 0 -- -- 88
2021-01-20 16:00:00 12.6 11 Sudoeste 27 Sudoeste 0 -- -- 87
2021-01-20 15:00:00 12.7 20 Sudoeste 36 Sudoeste 0 -- -- 85
2021-01-20 14:00:00 12.7 17 Sudoeste 34 Sudoeste 0 -- -- 86
2021-01-20 13:00:00 12.8 20 Sudoeste 33 Sudoeste 0 -- -- 87
2021-01-20 12:00:00 12.4 10 Sudoeste 16 Sudoeste 0 -- -- 85
2021-01-20 11:00:00 12.1 8 Sudoeste 17 Sudoeste 0 -- -- 85
2021-01-20 10:00:00 11.5 0 Calma 5 Noroeste 0 -- -- 87
2021-01-20 09:00:00 9.9 4 Norte 6 Norte 0 -- -- 89
2021-01-20 08:00:00 10 2 Norte 6 Noroeste 0 -- -- 89
2021-01-20 07:00:00 10.2 0 Calma 5 Norte 0 -- -- 88
2021-01-20 06:00:00 10.3 0 Calma 5 Norte 0 -- -- 88
2021-01-20 05:00:00 10.2 0 Calma 3 Noroeste 0 -- -- 89
2021-01-20 04:00:00 10.3 0 Calma 4 Noroeste 0 -- -- 87
2021-01-20 03:00:00 10.2 3 Norte 7 Norte 0 -- -- 86
2021-01-20 02:00:00 10.2 3 Norte 6 Norte 0 -- -- 86
2021-01-20 01:00:00 10.5 5 Noroeste 10 Oeste 0 -- -- 86
2021-01-20 00:00:00 10.8 5 Noroeste 11 Oeste 0 -- -- 86
2021-01-19 23:00:00 10.8 7 Oeste 15 Oeste 0 -- -- 87
2021-01-19 22:00:00 10.6 8 Oeste 14 Noroeste 0 -- -- 88
2021-01-19 21:00:00 10.5 5 Oeste 23 Oeste 0 -- -- 88
2021-01-19 20:00:00 10.7 10 Oeste 23 Oeste 0 -- -- 91
2021-01-19 19:00:00 11 10 Oeste 26 Sudoeste 0 -- -- 91
2021-01-19 18:00:00 11.4 17 Sudoeste 35 Sudoeste 0 -- -- 91
2021-01-19 17:00:00 12.2 16 Sudoeste 33 Sudoeste 0 -- -- 89
2021-01-19 16:00:00 13.2 20 Sudoeste 36 Sudoeste 0 -- -- 84
2021-01-19 15:00:00 13.4 22 Sudoeste 37 Sudoeste 0 -- -- 86
2021-01-19 14:00:00 14.3 20 Sudoeste 35 Oeste 0 -- -- 74
2021-01-19 13:00:00 13.5 11 Oeste 23 Oeste 0 -- -- 77
2021-01-19 12:00:00 12.7 12 Oeste 23 Oeste 0 -- -- 80
2021-01-19 11:00:00 11 4 Norte 13 Norte 0 -- -- 75
2021-01-19 10:00:00 7.7 5 Norte 12 Norte 0 -- -- 84
2021-01-19 09:00:00 6.6 8 Norte 11 Norte 0 -- -- 88
2021-01-19 08:00:00 6.5 8 Noroeste 9 Noroeste 0 -- -- 88
2021-01-19 07:00:00 7.7 5 Norte 7 Norte 0 -- -- 89
2021-01-19 06:00:00 8.9 3 Noroeste 12 Oeste 0 -- -- 91
2021-01-19 05:00:00 9.4 6 Noroeste 21 Oeste 0 -- -- 91
2021-01-19 04:00:00 9.4 10 Oeste 17 Noroeste 0 -- -- 91
2021-01-19 03:00:00 8.6 5 Noroeste 8 Oeste 0 -- -- 90
2021-01-19 02:00:00 8.7 4 Noroeste 9 Oeste 0 -- -- 90
2021-01-19 01:00:00 8.5 6 Noroeste 10 Noroeste 0 -- -- 89
2021-01-19 00:00:00 9.1 5 Norte 9 Norte 0 -- -- 88
2021-01-18 23:00:00 9.5 9 Norte 12 Norte 0 -- -- 89
2021-01-18 22:00:00 9.7 8 Norte 13 Norte 0 -- -- 91
2021-01-18 21:00:00 10 7 Norte 10 Norte 0 -- -- 91
2021-01-18 20:00:00 11.2 6 Oeste 13 Oeste 0 -- -- 89
2021-01-18 19:00:00 11.3 6 Oeste 13 Sudoeste 0 -- -- 89
2021-01-18 18:00:00 11.5 6 Sudoeste 12 Sudoeste 0 -- -- 89
2021-01-18 17:00:00 11.5 5 Sur 12 Sudoeste 0 -- -- 91
2021-01-18 16:00:00 11.6 10 Sudoeste 18 Sudoeste 0 -- -- 89
2021-01-18 15:00:00 11.6 9 Oeste 22 Oeste 0 -- -- 87
2021-01-18 14:00:00 11.9 6 Sudeste 13 Sudeste 0 -- -- 84
2021-01-18 13:00:00 11.5 12 Este 15 Nordeste 0 -- -- 84
2021-01-18 12:00:00 11.3 5 Este 10 Nordeste 0 -- -- 77
2021-01-18 11:00:00 11 0 Calma 10 Norte 0 -- -- 81
2021-01-18 10:00:00 9.3 4 Norte 7 Norte 0 -- -- 85
2021-01-18 09:00:00 8.7 4 Norte 9 Sudoeste 0 -- -- 88
2021-01-18 08:00:00 9.1 5 Sudoeste 17 Norte 0 -- -- 89
2021-01-18 07:00:00 7.6 13 Norte 16 Norte 0 -- -- 87
2021-01-18 06:00:00 8.4 8 Norte 11 Norte 0 -- -- 86
2021-01-18 05:00:00 8.3 5 Noroeste 17 Norte 0 -- -- 86
2021-01-18 04:00:00 8.1 11 Norte 17 Norte 0 -- -- 85
2021-01-18 03:00:00 7.9 10 Norte 15 Norte 0 -- -- 84
2021-01-18 02:00:00 8.6 9 Norte 16 Norte 0 -- -- 84
2021-01-18 01:00:00 8.5 7 Norte 12 Norte 0 -- -- 84
2021-01-18 00:00:00 9.2 10 Norte 13 Norte 0 -- -- 84
2021-01-17 23:00:00 9.8 8 Norte 10 Norte 0 -- -- 83
2021-01-17 22:00:00 10.7 6 Norte 10 Nordeste 0 -- -- 81
2021-01-17 21:00:00 11 7 Nordeste 11 Nordeste 0 -- -- 81
2021-01-17 20:00:00 11.3 8 Nordeste 13 Nordeste 0 -- -- 80
2021-01-17 19:00:00 11.6 6 Nordeste 8 Nordeste 0 -- -- 78
2021-01-17 18:00:00 12.2 5 Este 8 Este 0 -- -- 76
2021-01-17 17:00:00 12.6 7 Este 13 Este 0 -- -- 74
2021-01-17 16:00:00 14.1 13 Este 17 Este 0 -- -- 61
2021-01-17 15:00:00 13.6 9 Sur 18 Sudoeste 0 -- -- 60
2021-01-17 14:00:00 15.7 7 Este 15 Sudeste 0 -- -- 52
2021-01-17 13:00:00 15 6 Sudeste 15 Noroeste 0 -- -- 43
2021-01-17 12:00:00 14 0 Calma 17 Norte 0 -- -- 47
2021-01-17 11:00:00 11.1 8 Norte 18 Norte 0 -- -- 51
2021-01-17 10:00:00 10.8 0 Calma 16 Norte 0 -- -- 54
2021-01-17 09:00:00 6.9 13 Norte 23 Nordeste 0 -- -- 63
2021-01-17 08:00:00 8.2 8 Nordeste 14 Nordeste 0 -- -- 58
2021-01-17 07:00:00 8.6 3 Noroeste 19 Norte 0 -- -- 58
2021-01-17 06:00:00 8.4 7 Nordeste 21 Oeste 0 -- -- 58
2021-01-17 05:00:00 9.3 9 Sudoeste 18 Sudoeste 0 -- -- 57
2021-01-17 04:00:00 9.2 6 Sur 12 Sur 0 -- -- 60
2021-01-17 03:00:00 9 3 Sudoeste 15 Noroeste 0 -- -- 63
2021-01-17 02:00:00 9.1 11 Noroeste 17 Noroeste 0 -- -- 63
2021-01-17 01:00:00 9.3 10 Noroeste 16 Oeste 0 -- -- 63
2021-01-17 00:00:00 9.1 9 Noroeste 26 Noroeste 0 -- -- 62
2021-01-16 23:00:00 9.4 12 Oeste 22 Oeste 0 -- -- 60
2021-01-16 22:00:00 10 15 Noroeste 27 Noroeste 0 -- -- 57
2021-01-16 21:00:00 10 8 Noroeste 21 Noroeste 0 -- -- 57
2021-01-16 20:00:00 9.7 9 Noroeste 24 Noroeste 0 -- -- 59
2021-01-16 19:00:00 10.5 12 Noroeste 21 Norte 0 -- -- 56
2021-01-16 18:00:00 11.1 5 Oeste 11 Oeste 0 -- -- 60
2021-01-16 17:00:00 11.3 7 Oeste 22 Noroeste 0 -- -- 60
2021-01-16 16:00:00 12.7 14 Noroeste 22 Oeste 0 -- -- 46
2021-01-16 15:00:00 13.2 10 Noroeste 27 Noroeste 0 -- -- 47
2021-01-16 14:00:00 12.2 9 Noroeste 27 Noroeste 0 -- -- 50
2021-01-16 13:00:00 11.7 8 Oeste 22 Noroeste 0 -- -- 54
2021-01-16 12:00:00 10.6 7 Noroeste 21 Norte 0 -- -- 55
2021-01-16 11:00:00 10.2 5 Sur 9 Norte 0 -- -- 60
2021-01-16 10:00:00 7.9 3 Oeste 18 Norte 0 -- -- 68
2021-01-16 09:00:00 5.6 8 Norte 15 Norte 0 -- -- 77
2021-01-16 08:00:00 5.3 10 Norte 19 Norte 0 -- -- 82
2021-01-16 07:00:00 5.7 13 Norte 20 Norte 0 -- -- 81
2021-01-16 06:00:00 5.8 10 Norte 21 Norte 0 -- -- 81
2021-01-16 05:00:00 6.2 8 Norte 18 Norte 0 -- -- 89
2021-01-16 04:00:00 6.2 11 Noroeste 16 Noroeste 0 -- -- 89
2021-01-16 03:00:00 5.7 6 Norte 15 Norte 0 -- -- 88
2021-01-16 02:00:00 6.4 9 Norte 17 Norte 0 -- -- 85
2021-01-16 01:00:00 5.7 8 Norte 13 Norte 0 -- -- 91
2021-01-16 00:00:00 7.1 7 Noroeste 16 Norte 0 -- -- 91
2021-01-15 23:00:00 6.8 9 Norte 13 Norte 0 -- -- 91
2021-01-15 22:00:00 7.9 9 Noroeste 10 Norte 0 -- -- 91
2021-01-15 21:00:00 9.6 5 Noroeste 12 Este 0 -- -- 88
2021-01-15 20:00:00 10.2 9 Este 16 Sudeste 0 -- -- 87
2021-01-15 19:00:00 10.2 10 Este 21 Este 0 -- -- 84
2021-01-15 18:00:00 10.4 18 Este 24 Sudeste 0 -- -- 81
2021-01-15 17:00:00 10.3 18 Este 24 Este 0 -- -- 84
2021-01-15 16:00:00 11.1 19 Este 23 Este 0 -- -- 79
2021-01-15 15:00:00 11.2 8 Norte 18 Noroeste 0 -- -- 58
2021-01-15 14:00:00 10.8 9 Noroeste 19 Norte 0 -- -- 59
2021-01-15 13:00:00 11.9 0 Calma 12 Sudeste 0 -- -- 59
2021-01-15 12:00:00 11.6 3 Este 10 Nordeste 0 -- -- 61
2021-01-15 11:00:00 8.2 7 Norte 14 Norte 0 -- -- 68
2021-01-15 10:00:00 7.5 5 Norte 17 Norte 0 -- -- 70
2021-01-15 09:00:00 6.4 8 Norte 15 Noroeste 0 -- -- 73
2021-01-15 08:00:00 5.8 10 Norte 23 Noroeste 0 -- -- 74
2021-01-15 07:00:00 5.5 5 Norte 15 Oeste 0 -- -- 82
2021-01-15 06:00:00 5.4 10 Norte 17 Norte 0 -- -- 83
2021-01-15 05:00:00 5.3 6 Este 19 Este 0 -- -- 82
2021-01-15 04:00:00 6.4 3 Sudoeste 7 Sudoeste 0 -- -- 79
2021-01-15 03:00:00 6.2 3 Oeste 17 Nordeste 0 -- -- 78
2021-01-15 02:00:00 6.1 8 Norte 12 Norte 0 -- -- 79
2021-01-15 01:00:00 6.2 5 Oeste 13 Norte 0 -- -- 80
2021-01-15 00:00:00 6.8 2 Noroeste 12 Norte 0 -- -- 80
2021-01-14 23:00:00 6.7 6 Norte 21 Norte 0 -- -- 80
2021-01-14 22:00:00 6.9 9 Norte 17 Norte 0 -- -- 80
2021-01-14 21:00:00 6.8 6 Norte 15 Norte 0 -- -- 80
2021-01-14 20:00:00 7.4 8 Noroeste 20 Noroeste 0 -- -- 77
2021-01-14 19:00:00 7.3 15 Noroeste 30 Noroeste 0 -- -- 76
2021-01-14 18:00:00 7.1 15 Noroeste 30 Noroeste 0 -- -- 73
2021-01-14 17:00:00 8.2 18 Noroeste 31 Noroeste 0 -- -- 67
2021-01-14 16:00:00 9.9 11 Noroeste 25 Norte 0 -- -- 61
2021-01-14 15:00:00 11.1 7 Norte 18 Norte 0 -- -- 58
2021-01-14 14:00:00 10.7 11 Norte 27 Noroeste 0 -- -- 60
2021-01-14 13:00:00 9.8 15 Norte 28 Norte 0 -- -- 65
2021-01-14 12:00:00 9.2 9 Norte 28 Norte 0 -- -- 67
2021-01-14 11:00:00 7.7 13 Norte 29 Noroeste 0 -- -- 73
2021-01-14 10:00:00 6.5 18 Norte 33 Norte 0 -- -- 77
2021-01-14 09:00:00 5.5 17 Norte 33 Norte 0 -- -- 81
2021-01-14 08:00:00 5.4 15 Norte 24 Norte 0 -- -- 82
2021-01-14 07:00:00 5.7 12 Norte 21 Noroeste 0 -- -- 82
2021-01-14 06:00:00 5.9 13 Noroeste 27 Noroeste 0 -- -- 83
2021-01-14 05:00:00 6.2 14 Norte 23 Noroeste 0 -- -- 82
2021-01-14 04:00:00 6.5 13 Noroeste 31 Norte 0 -- -- 83
2021-01-14 03:00:00 6.8 17 Norte 32 Norte 0 -- -- 82
2021-01-14 02:00:00 7.3 9 Noroeste 26 Norte 0 -- -- 79
2021-01-14 01:00:00 8.3 5 Noroeste 17 Noroeste 0 -- -- 76
2021-01-14 00:00:00 8.6 9 Norte 30 Norte 0 -- -- 76
2021-01-13 23:00:00 8.6 12 Norte 26 Noroeste 0 -- -- 76
2021-01-13 22:00:00 8.3 15 Norte 31 Norte 0 -- -- 73
2021-01-13 21:00:00 8.8 15 Norte 31 Noroeste 0 -- -- 68
2021-01-13 20:00:00 8.9 12 Noroeste 30 Norte 0 -- -- 65
2021-01-13 19:00:00 9.1 14 Noroeste 25 Norte 0 -- -- 60
2021-01-13 18:00:00 9.8 10 Norte 18 Noroeste 0 -- -- 57
2021-01-13 17:00:00 11.1 7 Noroeste 18 Noroeste 0 -- -- 54
2021-01-13 16:00:00 12.9 3 Noroeste 14 Nordeste 0 -- -- 50
2021-01-13 15:00:00 12.2 7 Norte 19 Norte 0 -- -- 53
2021-01-13 14:00:00 11.6 7 Norte 18 Noroeste 0 -- -- 54
2021-01-13 13:00:00 11.5 0 Calma 21 Norte 0 -- -- 55
2021-01-13 12:00:00 10 2 Sudoeste 23 Noroeste 0 -- -- 60
2021-01-13 11:00:00 8.4 15 Norte 33 Noroeste 0 -- -- 65
2021-01-13 10:00:00 7.3 13 Noroeste 25 Noroeste 0 -- -- 67
2021-01-13 09:00:00 5.9 0 Calma 14 Noroeste 0 -- -- 76
2021-01-13 08:00:00 4.8 5 Norte 14 Norte 0 -- -- 77
2021-01-13 07:00:00 4.8 0 Calma 12 Sudoeste 0 -- -- 76
2021-01-13 06:00:00 4.5 6 Noroeste 18 Noroeste 0 -- -- 76
2021-01-13 05:00:00 4.6 5 Noroeste 10 Noroeste 0 -- -- 77
2021-01-13 04:00:00 4.7 3 Sudoeste 18 Oeste 0 -- -- 77
2021-01-13 03:00:00 4.8 4 Oeste 22 Oeste 0 -- -- 76
2021-01-13 02:00:00 4.8 4 Sudoeste 34 Oeste 0 -- -- 74
2021-01-13 01:00:00 5.3 3 Noroeste 22 Noroeste 0 -- -- 71
2021-01-13 00:00:00 5.6 10 Noroeste 21 Noroeste 0 -- -- 69
2021-01-12 23:00:00 5.5 10 Noroeste 23 Noroeste 0 -- -- 69
2021-01-12 22:00:00 5.1 14 Noroeste 29 Noroeste 0 -- -- 67
2021-01-12 21:00:00 5.8 12 Noroeste 36 Noroeste 0 -- -- 64
2021-01-12 20:00:00 5.8 14 Noroeste 40 Noroeste 0 -- -- 63
2021-01-12 19:00:00 5.9 19 Noroeste 36 Noroeste 0 -- -- 56
2021-01-12 18:00:00 6.2 21 Noroeste 35 Noroeste 0 -- -- 53
2021-01-12 17:00:00 7.6 13 Noroeste 28 Noroeste 0 -- -- 48
2021-01-12 16:00:00 9 9 Noroeste 22 Noroeste 0 -- -- 46
2021-01-12 15:00:00 8.5 14 Noroeste 31 Noroeste 0 -- -- 47
2021-01-12 14:00:00 8 14 Norte 27 Norte 0 -- -- 47
2021-01-12 13:00:00 8.6 15 Noroeste 29 Norte 0 -- -- 45
2021-01-12 12:00:00 8.6 2 Este 19 Sudeste 0 -- -- 48
2021-01-12 11:00:00 7.9 4 Sur 10 Noroeste 0 -- -- 55
2021-01-12 10:00:00 6.9 5 Sudeste 11 Este 0 -- -- 57
2021-01-12 09:00:00 4.7 2 Oeste 11 Norte 0 -- -- 59
2021-01-12 08:00:00 3.8 0 Calma 20 Noroeste 0 -- -- 60
2021-01-12 07:00:00 3.5 2 Noroeste 12 Norte 0 -- -- 63
2021-01-12 06:00:00 3.4 0 Calma 15 Noroeste 0 -- -- 66
2021-01-12 05:00:00 3.6 4 Noroeste 22 Noroeste 0 -- -- 64
2021-01-12 04:00:00 3.5 11 Noroeste 23 Noroeste 0 -- -- 65
2021-01-12 03:00:00 3.3 4 Noroeste 24 Noroeste 0 -- -- 68
2021-01-12 02:00:00 3.6 14 Noroeste 21 Noroeste 0 -- -- 68
2021-01-12 01:00:00 3.5 10 Noroeste 16 Norte 0 -- -- 72
2021-01-12 00:00:00 3.4 8 Norte 16 Norte 0 -- -- 74
2021-01-11 23:00:00 3.5 8 Noroeste 17 Nordeste 0 -- -- 75
2021-01-11 22:00:00 3.5 6 Norte 15 Norte 0 -- -- 75
2021-01-11 21:00:00 3.4 7 Norte 16 Norte 0 -- -- 75
2021-01-11 20:00:00 4.2 6 Norte 20 Noroeste 0 -- -- 72
2021-01-11 19:00:00 4.4 13 Norte 27 Norte 0 -- -- 72
2021-01-11 18:00:00 5.5 9 Noroeste 17 Noroeste 0 -- -- 68
2021-01-11 17:00:00 6.6 8 Noroeste 23 Norte 0 -- -- 67
2021-01-11 16:00:00 7.6 10 Noroeste 28 Noroeste 0 -- -- 64
2021-01-11 15:00:00 7.9 10 Noroeste 18 Oeste 0 -- -- 62
2021-01-11 14:00:00 9.1 3 Oeste 16 Noroeste 0 -- -- 64
2021-01-11 13:00:00 8 3 Norte 16 Noroeste 0 -- -- 69
2021-01-11 12:00:00 6.7 8 Norte 17 Norte 0 -- -- 73
2021-01-11 11:00:00 5.3 10 Noroeste 21 Noroeste 0 -- -- 77
2021-01-11 10:00:00 4.2 9 Noroeste 19 Noroeste 0 -- -- 80
2021-01-11 09:00:00 3.7 7 Norte 17 Norte 0 -- -- 83
2021-01-11 08:00:00 3.9 8 Norte 22 Noroeste 0 -- -- 84
2021-01-11 07:00:00 4.3 13 Norte 24 Noroeste 0 -- -- 82
2021-01-11 06:00:00 4.5 9 Noroeste 24 Norte 0 -- -- 84
2021-01-11 05:00:00 4.5 6 Noroeste 22 Norte 0 -- -- 86
2021-01-11 04:00:00 4.6 14 Noroeste 24 Noroeste 0 -- -- 86
2021-01-11 03:00:00 5 11 Norte 20 Norte 0 -- -- 85
2021-01-11 02:00:00 5.5 10 Noroeste 21 Noroeste 0 -- -- 81
2021-01-11 01:00:00 5.5 8 Norte 16 Norte 0 -- -- 84
2021-01-11 00:00:00 5.9 6 Noroeste 13 Noroeste 0 -- -- 85
2021-01-10 23:00:00 5.5 7 Norte 18 Norte 0 -- -- 88
2021-01-10 22:00:00 5.9 6 Nordeste 8 Nordeste 0 -- -- 88
2021-01-10 21:00:00 6.1 4 Norte 17 Norte 0 -- -- 88
2021-01-10 20:00:00 6.3 10 Norte 19 Noroeste 0 -- -- 86
2021-01-10 19:00:00 6.7 5 Norte 16 Norte 0 -- -- 87
2021-01-10 18:00:00 7.5 9 Norte 37 Este 0 -- -- 84
2021-01-10 17:00:00 8.1 28 Este 37 Este 0 -- -- 73
2021-01-10 16:00:00 8.3 22 Este 33 Este 0 -- -- 76
2021-01-10 15:00:00 7.4 9 Norte 15 Noroeste 0.1 -- -- 83
2021-01-10 14:00:00 6.9 6 Norte 18 Norte 0.3 -- -- 89
2021-01-10 13:00:00 7 8 Norte 30 Norte 0.6 -- -- 84
2021-01-10 12:00:00 7.6 13 Norte 29 Nordeste 0 -- -- 76
2021-01-10 11:00:00 7.9 14 Nordeste 29 Norte 0 -- -- 68
2021-01-10 10:00:00 7.7 18 Norte 31 Norte 0 -- -- 71
2021-01-10 09:00:00 7.9 11 Norte 26 Norte 0 -- -- 69
2021-01-10 08:00:00 7.3 13 Nordeste 26 Norte 0 -- -- 72
2021-01-10 07:00:00 7.5 13 Nordeste 35 Nordeste 0 -- -- 69
2021-01-10 06:00:00 7.5 21 Nordeste 36 Nordeste 0 -- -- 70
2021-01-10 05:00:00 7.3 23 Nordeste 42 Norte 0 -- -- 72
2021-01-10 04:00:00 7.2 23 Nordeste 44 Nordeste 0 -- -- 73
2021-01-10 03:00:00 7 20 Nordeste 35 Nordeste 0 -- -- 74
2021-01-10 02:00:00 6.9 23 Nordeste 49 Nordeste 0.9 -- -- 79
2021-01-10 01:00:00 7.2 23 Nordeste 45 Nordeste 0.1 -- -- 78
2021-01-10 00:00:00 7.3 12 Nordeste 49 Este 0 -- -- 77
2021-01-09 23:00:00 7.3 30 Nordeste 64 Este 0 -- -- 79
2021-01-09 22:00:00 7.6 32 Nordeste 59 Este 0 -- -- 77
2021-01-09 21:00:00 7.8 28 Nordeste 66 Nordeste 0 -- -- 80
2021-01-09 20:00:00 7.2 45 Nordeste 77 Este 0 -- -- 84
2021-01-09 19:00:00 7 35 Nordeste 63 Nordeste 0 -- -- 84
2021-01-09 18:00:00 7.1 29 Nordeste 64 Nordeste 0 -- -- 84
2021-01-09 17:00:00 7.2 35 Nordeste 51 Este 0 -- -- 86
2021-01-09 16:00:00 6.5 28 Nordeste 51 Nordeste 0.2 -- -- 89
2021-01-09 15:00:00 6.8 32 Nordeste 60 Este 0.2 -- -- 88
2021-01-09 14:00:00 6.6 37 Nordeste 58 Este 1 -- -- 89
2021-01-09 13:00:00 6.5 33 Nordeste 55 Este 1.6 -- -- 89
2021-01-09 12:00:00 6.9 33 Nordeste 54 Este 0 -- -- 85
2021-01-09 11:00:00 5.9 23 Nordeste 44 Este 1.3 -- -- 90
2021-01-09 10:00:00 5.6 23 Nordeste 44 Nordeste 2.3 -- -- 91
2021-01-09 09:00:00 6.1 24 Nordeste 49 Nordeste 0.3 -- -- 88
2021-01-09 08:00:00 6.1 28 Nordeste 47 Este 1.1 -- -- 90
2021-01-09 07:00:00 6 21 Nordeste 39 Nordeste 0.7 -- -- 88
2021-01-09 06:00:00 4.2 17 Norte 35 Norte 0.7 -- -- 90
2021-01-09 05:00:00 4 18 Norte 33 Norte 0.3 -- -- 87
2021-01-09 04:00:00 4.2 15 Norte 37 Nordeste 1.1 -- -- 83
2021-01-09 03:00:00 5.4 17 Nordeste 36 Nordeste 0 -- -- 70
2021-01-09 02:00:00 6.7 13 Nordeste 28 Este 0 -- -- 50
2021-01-09 01:00:00 5.6 10 Norte 30 Nordeste 0 -- -- 48
2021-01-09 00:00:00 5.9 13 Nordeste 22 Nordeste 0 -- -- 45
2021-01-08 23:00:00 6.1 11 Nordeste 26 Este 0 -- -- 47
2021-01-08 22:00:00 6.2 13 Nordeste 28 Nordeste 0 -- -- 50
2021-01-08 21:00:00 6.5 14 Nordeste 38 Este 0 -- -- 57
2021-01-08 20:00:00 6.4 9 Norte 15 Nordeste 0 -- -- 61
2021-01-08 19:00:00 6.7 5 Norte 9 Noroeste 0 -- -- 65
2021-01-08 18:00:00 6.7 5 Noroeste 11 Norte 0 -- -- 65
2021-01-08 17:00:00 6.8 4 Nordeste 11 Nordeste 0 -- -- 64
2021-01-08 16:00:00 6.8 6 Norte 13 Norte 0 -- -- 64
2021-01-08 15:00:00 6.9 7 Nordeste 15 Nordeste 0 -- -- 63
2021-01-08 14:00:00 6.6 8 Norte 15 Nordeste 0 -- -- 64
2021-01-08 13:00:00 5.6 9 Norte 17 Norte 0 -- -- 66
2021-01-08 12:00:00 5.1 8 Norte 18 Norte 0 -- -- 68
2021-01-08 11:00:00 3.8 10 Norte 23 Noroeste 0 -- -- 72
2021-01-08 10:00:00 3.3 13 Norte 23 Norte 0 -- -- 73
2021-01-08 09:00:00 2.3 10 Norte 21 Norte 0 -- -- 78
2021-01-08 08:00:00 2.7 9 Norte 15 Norte 0 -- -- 76
2021-01-08 07:00:00 3.4 9 Norte 21 Noroeste 0 -- -- 72
2021-01-08 06:00:00 3 12 Norte 21 Norte 0 -- -- 73
2021-01-08 05:00:00 3.1 13 Norte 23 Norte 0 -- -- 72
2021-01-08 04:00:00 3.7 11 Norte 18 Norte 0 -- -- 70
2021-01-08 03:00:00 4.1 7 Norte 17 Noroeste 0 -- -- 68
2021-01-08 02:00:00 4.2 12 Norte 21 Norte 0 -- -- 70
2021-01-08 01:00:00 4.6 11 Noroeste 21 Noroeste 0 -- -- 68
2021-01-08 00:00:00 5.1 7 Norte 19 Nordeste 0 -- -- 64
2021-01-07 23:00:00 5.7 8 Norte 14 Norte 0 -- -- 66
2021-01-07 22:00:00 5.9 4 Oeste 16 Norte 0 -- -- 70
2021-01-07 21:00:00 6 8 Norte 18 Norte 0 -- -- 66
2021-01-07 20:00:00 6.5 6 Norte 13 Noroeste 0 -- -- 69
2021-01-07 19:00:00 6.9 6 Norte 13 Nordeste 0 -- -- 70
2021-01-07 18:00:00 7.1 5 Nordeste 17 Este 0 -- -- 68
2021-01-07 17:00:00 7.3 11 Este 20 Este 0 -- -- 68
2021-01-07 16:00:00 7.4 13 Este 24 Este 0 -- -- 69
2021-01-07 15:00:00 7.1 13 Este 24 Este 0 -- -- 68
2021-01-07 14:00:00 6.9 17 Este 25 Este 0 -- -- 65
2021-01-07 13:00:00 6.8 18 Este 27 Este 0 -- -- 64
2021-01-07 12:00:00 6.3 6 Norte 15 Norte 0 -- -- 76
2021-01-07 11:00:00 5.4 9 Norte 15 Norte 0 -- -- 80
2021-01-07 10:00:00 4.7 9 Norte 17 Norte 0 -- -- 83
2021-01-07 09:00:00 4.3 9 Norte 17 Norte 0 -- -- 87
2021-01-07 08:00:00 4.4 11 Norte 19 Norte 0 -- -- 88
2021-01-07 07:00:00 4.3 10 Norte 18 Noroeste 0 -- -- 90
2021-01-07 06:00:00 4.3 9 Norte 19 Norte 0.5 -- -- 93
2021-01-07 05:00:00 4.3 9 Norte 19 Nordeste 1.2 -- -- 93
2021-01-07 04:00:00 5 8 Norte 18 Nordeste 0 -- -- 89
2021-01-07 03:00:00 4.7 10 Norte 17 Norte 0 -- -- 89
2021-01-07 02:00:00 4.5 11 Norte 22 Norte 0 -- -- 86
2021-01-07 01:00:00 4.6 12 Norte 24 Norte 0 -- -- 81
2021-01-07 00:00:00 5.2 11 Norte 19 Norte 0 -- -- 79
2021-01-06 23:00:00 5.5 10 Norte 21 Norte 0 -- -- 78
2021-01-06 22:00:00 5.7 10 Norte 21 Norte 0 -- -- 80
2021-01-06 21:00:00 6.3 10 Norte 22 Norte 0 -- -- 69
2021-01-06 20:00:00 7 11 Norte 21 Nordeste 0 -- -- 77
2021-01-06 19:00:00 7.5 7 Norte 10 Norte 0 -- -- 73
2021-01-06 18:00:00 7.7 3 Nordeste 6 Nordeste 0 -- -- 72
2021-01-06 17:00:00 8.3 0 Calma 12 Sudeste 0 -- -- 70
2021-01-06 16:00:00 9.7 6 Sur 13 Sudeste 0 -- -- 66
2021-01-06 15:00:00 10 7 Sur 11 Sur 0 -- -- 65
2021-01-06 14:00:00 9.9 6 Sudeste 11 Sudeste 0 -- -- 66
2021-01-06 13:00:00 8 4 Norte 14 Norte 0 -- -- 67
2021-01-06 12:00:00 6.4 8 Norte 17 Norte 0 -- -- 67
2021-01-06 11:00:00 5.1 9 Norte 18 Norte 0 -- -- 71
2021-01-06 10:00:00 4 10 Norte 22 Noroeste 0 -- -- 74
2021-01-06 09:00:00 2.7 13 Norte 24 Norte 0 -- -- 79
2021-01-06 08:00:00 2.1 14 Norte 23 Norte 0 -- -- 80
2021-01-06 07:00:00 2.2 11 Norte 23 Norte 0 -- -- 80
2021-01-06 06:00:00 2.6 13 Norte 20 Norte 0 -- -- 80
2021-01-06 05:00:00 2.4 11 Norte 19 Norte 0 -- -- 80
2021-01-06 04:00:00 2.7 10 Norte 22 Norte 0 -- -- 81
2021-01-06 03:00:00 2.9 12 Noroeste 21 Norte 0 -- -- 81
2021-01-06 02:00:00 2.7 9 Noroeste 20 Noroeste 0 -- -- 81
2021-01-06 01:00:00 3.1 10 Norte 19 Norte 0 -- -- 78
2021-01-06 00:00:00 3.3 8 Norte 13 Norte 0 -- -- 78
2021-01-05 23:00:00 4.7 4 Norte 19 Norte 0 -- -- 72
2021-01-05 22:00:00 5.2 10 Noroeste 16 Norte 0 -- -- 69
2021-01-05 21:00:00 5.8 6 Noroeste 15 Noroeste 0 -- -- 67
2021-01-05 20:00:00 6.4 8 Noroeste 15 Noroeste 0 -- -- 73
2021-01-05 19:00:00 6.9 8 Sudoeste 20 Sudoeste 0 -- -- 81
2021-01-05 18:00:00 7 15 Sudoeste 21 Sudoeste 0 -- -- 81
2021-01-05 17:00:00 7.2 15 Sudoeste 22 Sudoeste 0 -- -- 81
2021-01-05 16:00:00 7.8 7 Sur 13 Sudeste 0 -- -- 69
2021-01-05 15:00:00 8.1 8 Sudeste 17 Sudeste 0 -- -- 64
2021-01-05 14:00:00 9.9 8 Sudeste 17 Sudeste 0 -- -- 60
2021-01-05 13:00:00 9 6 Sudeste 13 Sudeste 0 -- -- 62
2021-01-05 12:00:00 7.5 4 Norte 13 Norte 0 -- -- 64
2021-01-05 11:00:00 6.1 5 Norte 18 Norte 0 -- -- 69
2021-01-05 10:00:00 3.4 7 Norte 18 Norte 0 -- -- 78
2021-01-05 09:00:00 3.8 9 Norte 17 Norte 0 -- -- 77
2021-01-05 08:00:00 3.5 8 Norte 15 Norte 0 -- -- 78
2021-01-05 07:00:00 3.8 6 Norte 18 Norte 0 -- -- 76
2021-01-05 06:00:00 3.4 9 Norte 20 Norte 0 -- -- 77
2021-01-05 05:00:00 3.7 13 Norte 28 Noroeste 0 -- -- 75
2021-01-05 04:00:00 4.1 13 Norte 24 Norte 0 -- -- 72
2021-01-05 03:00:00 4.5 4 Norte 14 Noroeste 0 -- -- 71
2021-01-05 02:00:00 4.8 10 Oeste 17 Oeste 0 -- -- 69
2021-01-05 01:00:00 4.9 10 Oeste 14 Oeste 0 -- -- 69
2021-01-05 00:00:00 5.2 8 Noroeste 17 Oeste 0 -- -- 67
2021-01-04 23:00:00 5.7 9 Oeste 15 Oeste 0 -- -- 65
2021-01-04 22:00:00 6.4 7 Noroeste 19 Oeste 0 -- -- 62
2021-01-04 21:00:00 6.9 6 Noroeste 17 Noroeste 0 -- -- 59
2021-01-04 20:00:00 7.2 8 Noroeste 16 Noroeste 0 -- -- 58
2021-01-04 19:00:00 7.7 6 Noroeste 14 Noroeste 0 -- -- 54
2021-01-04 18:00:00 8.3 8 Noroeste 22 Noroeste 0 -- -- 50
2021-01-04 17:00:00 8.7 14 Noroeste 31 Oeste 0 -- -- 49
2021-01-04 16:00:00 9.6 15 Noroeste 31 Noroeste 0 -- -- 46
2021-01-04 15:00:00 9.4 19 Noroeste 36 Noroeste 0 -- -- 46
2021-01-04 14:00:00 8.9 17 Noroeste 35 Noroeste 0 -- -- 55
2021-01-04 13:00:00 8.1 19 Noroeste 35 Oeste 0 -- -- 59
2021-01-04 12:00:00 6.9 13 Noroeste 26 Noroeste 0 -- -- 64
2021-01-04 11:00:00 6.3 8 Noroeste 18 Noroeste 0 -- -- 69
2021-01-04 10:00:00 5.1 2 Nordeste 22 Oeste 0 -- -- 75
2021-01-04 09:00:00 4.3 10 Noroeste 23 Oeste 0 -- -- 76
2021-01-04 08:00:00 4.7 7 Oeste 21 Noroeste 0 -- -- 76
2021-01-04 07:00:00 3.4 6 Nordeste 15 Norte 0 -- -- 78
2021-01-04 06:00:00 3.5 7 Norte 18 Norte 0 -- -- 76
2021-01-04 05:00:00 3.7 11 Norte 18 Norte 0 -- -- 74
2021-01-04 04:00:00 3 6 Norte 13 Norte 0 -- -- 76
2021-01-04 03:00:00 3.3 10 Norte 16 Norte 0 -- -- 71
2021-01-04 02:00:00 4.2 9 Norte 19 Norte 0 -- -- 69
2021-01-04 01:00:00 4 10 Norte 19 Norte 0 -- -- 70
2021-01-04 00:00:00 4.4 13 Norte 17 Norte 0 -- -- 70
2021-01-03 23:00:00 5.1 7 Norte 16 Norte 0 -- -- 68
2021-01-03 22:00:00 5 9 Norte 16 Norte 0 -- -- 66
2021-01-03 21:00:00 5.7 10 Norte 15 Norte 0 -- -- 63
2021-01-03 20:00:00 6.8 8 Norte 12 Norte 0 -- -- 59
2021-01-03 19:00:00 7.7 8 Oeste 13 Oeste 0 -- -- 56
2021-01-03 18:00:00 7.6 8 Oeste 15 Oeste 0 -- -- 56
2021-01-03 17:00:00 8 9 Sudoeste 42 Sudoeste 0 -- -- 53
2021-01-03 16:00:00 8.6 14 Sudoeste 25 Sudoeste 0 -- -- 52
2021-01-03 15:00:00 8.3 17 Sudoeste 25 Sudoeste 0 -- -- 48
2021-01-03 14:00:00 8.9 15 Oeste 26 Oeste 0 -- -- 41
2021-01-03 13:00:00 8.1 8 Noroeste 24 Norte 0 -- -- 43
2021-01-03 12:00:00 6.2 14 Norte 22 Norte 0 -- -- 47
2021-01-03 11:00:00 4.9 7 Noroeste 16 Norte 0 -- -- 50
2021-01-03 10:00:00 4.4 7 Noroeste 15 Norte 0 -- -- 52
2021-01-03 09:00:00 4.5 8 Noroeste 13 Norte 0 -- -- 52
2021-01-03 08:00:00 4.3 8 Noroeste 16 Noroeste 0 -- -- 52
2021-01-03 07:00:00 4.3 8 Noroeste 21 Noroeste 0 -- -- 52
2021-01-03 06:00:00 4.4 12 Noroeste 30 Noroeste 0 -- -- 52
2021-01-03 05:00:00 4.6 11 Noroeste 17 Norte 0 -- -- 51
2021-01-03 04:00:00 4.9 0 Calma 18 Noroeste 0 -- -- 50
2021-01-03 03:00:00 5.7 4 Norte 14 Noroeste 0 -- -- 49
2021-01-03 02:00:00 6.2 7 Norte 14 Noroeste 0 -- -- 53
2021-01-03 01:00:00 7 6 Norte 12 Noroeste 0 -- -- 75
2021-01-03 00:00:00 7.5 6 Nordeste 25 Este 0 -- -- 77
2021-01-02 23:00:00 7.9 23 Este 30 Sudeste 0 -- -- 75
2021-01-02 22:00:00 7.1 5 Norte 17 Norte 0 -- -- 70
2021-01-02 21:00:00 6.9 9 Norte 19 Norte 0 -- -- 59
2021-01-02 20:00:00 7.2 8 Norte 20 Noroeste 0 -- -- 59
2021-01-02 19:00:00 7.6 6 Norte 23 Norte 0 -- -- 55
2021-01-02 18:00:00 7.6 5 Norte 19 Noroeste 0 -- -- 58
2021-01-02 17:00:00 8.2 7 Noroeste 19 Noroeste 0 -- -- 57
2021-01-02 16:00:00 8.9 10 Noroeste 18 Norte 0 -- -- 56
2021-01-02 15:00:00 9.5 5 Noroeste 18 Noroeste 0 -- -- 57
2021-01-02 14:00:00 9.5 8 Noroeste 17 Noroeste 0 -- -- 61